Time;durP1;ratioP1;P1;durP2;ratioP2;P2;SDS_P1;SDS_P2;PMS_P1;PMS_P2;Temp;Humidity;BMP_temperature;BMP_pressure;BME280_temperature;BME280_humidity;BME280_pressure;Samples;Min_cycle;Max_cycle;Signal;HPM_P1;HPM_P2
2022/11/04 00:01:45;;;;;;;11.75;6.15;;;;;;;-0.83;72.92;99136.06;5052517;28;20397;-71
2022/11/04 00:04:12;;;;;;;15.32;6.50;;;;;;;-0.85;73.10;99135.41;5035146;28;20172;-71
2022/11/04 00:06:38;;;;;;;14.20;6.35;;;;;;;-0.80;73.40;99144.34;5034537;28;20405;-72
2022/11/04 00:09:06;;;;;;;12.63;7.30;;;;;;;-0.84;72.90;99131.84;5035060;28;20052;-72
2022/11/04 00:14:16;;;;;;;14.40;6.60;;;;;;;-0.58;72.40;99142.78;5034470;28;20585;-71
2022/11/04 00:19:26;;;;;;;16.30;6.78;;;;;;;-0.61;71.92;99144.91;5037627;28;20048;-71
2022/11/04 00:30:25;;;;;;;14.10;6.78;;;;;;;-0.63;73.09;99139.06;4941678;28;20064;-72
2022/11/04 00:35:35;;;;;;;19.60;7.18;;;;;;;-0.87;73.51;99148.59;5020264;28;20082;-71
2022/11/04 00:38:01;;;;;;;19.92;7.95;;;;;;;-0.82;73.30;99138.50;5017736;28;20045;-72
2022/11/04 00:40:26;;;;;;;14.68;7.30;;;;;;;-0.78;73.05;99125.97;5018117;28;20044;-72
2022/11/04 00:42:52;;;;;;;14.95;7.18;;;;;;;-0.71;72.90;99127.72;5017372;28;20615;-73
2022/11/04 00:45:18;;;;;;;15.20;7.18;;;;;;;-0.57;72.60;99133.16;5034080;28;20498;-71
2022/11/04 00:47:43;;;;;;;17.15;7.50;;;;;;;-0.67;72.39;99125.59;5033684;28;20123;-72
2022/11/04 00:50:09;;;;;;;15.88;7.18;;;;;;;-0.74;73.23;99129.84;5051826;28;20063;-72
2022/11/04 00:52:35;;;;;;;14.57;7.40;;;;;;;-0.63;72.98;99120.84;5033662;28;20063;-73
2022/11/04 00:55:01;;;;;;;16.75;7.43;;;;;;;-0.58;72.51;99118.53;5001230;28;20072;-71
2022/11/04 00:57:29;;;;;;;17.45;7.35;;;;;;;-0.41;71.64;99124.44;5017660;28;20161;-73
2022/11/04 00:59:55;;;;;;;16.63;7.25;;;;;;;-0.48;71.69;99108.69;5051968;28;20159;-72
2022/11/04 01:02:22;;;;;;;17.88;8.07;;;;;;;-0.54;72.08;99120.59;5033711;28;20436;-72
2022/11/04 01:04:47;;;;;;;14.30;6.70;;;;;;;-0.54;72.17;99122.41;5033699;28;20064;-72
2022/11/04 01:07:13;;;;;;;16.10;7.85;;;;;;;-0.46;72.26;99117.97;5033482;28;20079;-72
2022/11/04 01:09:40;;;;;;;16.55;7.03;;;;;;;-0.50;71.89;99114.09;5051494;28;20048;-72
2022/11/04 01:12:06;;;;;;;14.43;6.93;;;;;;;-0.51;71.94;99114.25;4984431;28;20029;-72
2022/11/04 01:14:32;;;;;;;16.15;6.82;;;;;;;-0.47;71.63;99120.75;5033374;28;20033;-73
2022/11/04 01:16:58;;;;;;;16.27;7.07;;;;;;;-0.38;71.54;99117.09;5033594;28;20490;-73
2022/11/04 01:19:23;;;;;;;17.85;7.38;;;;;;;-0.30;71.38;99121.44;5033825;28;20582;-72
2022/11/04 01:21:50;;;;;;;16.67;7.20;;;;;;;-0.55;71.52;99121.59;5016886;28;20057;-72
2022/11/04 01:24:16;;;;;;;18.88;7.90;;;;;;;-0.65;72.42;99120.19;5017410;28;20117;-71
2022/11/04 01:26:41;;;;;;;14.98;7.20;;;;;;;-0.70;72.11;99124.13;5016921;28;20032;-72
2022/11/04 01:29:07;;;;;;;18.67;8.13;;;;;;;-0.78;73.02;99118.16;5032660;28;20044;-71
2022/11/04 01:31:33;;;;;;;16.48;7.57;;;;;;;-0.77;73.19;99111.94;5016689;28;20049;-72
2022/11/04 01:33:59;;;;;;;21.38;8.65;;;;;;;-0.65;72.24;99117.59;5033302;28;20040;-72
2022/11/04 01:36:25;;;;;;;21.27;8.18;;;;;;;-0.67;72.56;99122.97;5033157;28;20143;-72
2022/11/04 01:38:51;;;;;;;18.77;7.63;;;;;;;-0.66;72.17;99116.78;5051382;28;20405;-71
2022/11/04 01:41:31;;;;;;;20.70;7.78;;;;;;;-0.55;71.76;99121.59;5016522;28;20049;-71
2022/11/04 01:43:58;;;;;;;17.08;7.80;;;;;;;-0.66;71.71;99111.56;5033439;28;20036;-72
2022/11/04 01:46:36;;;;;;;17.58;8.40;;;;;;;-0.74;72.96;99130.63;5033196;28;20048;-72
2022/11/04 01:49:26;;;;;;;18.17;7.30;;;;;;;-0.90;73.33;99122.13;5033804;28;20469;-72
2022/11/04 01:52:02;;;;;;;17.48;7.70;;;;;;;-0.97;73.75;99127.16;5033058;28;20098;-72
2022/11/04 01:54:28;;;;;;;15.75;7.15;;;;;;;-1.04;73.69;99123.63;5051410;28;20037;-71
2022/11/04 01:56:55;;;;;;;17.50;7.85;;;;;;;-0.97;73.76;99127.16;5000171;28;20060;-72
2022/11/04 01:59:27;;;;;;;20.30;7.63;;;;;;;-0.92;73.20;99119.69;5016886;28;20037;-71
2022/11/04 02:01:53;;;;;;;22.77;7.75;;;;;;;-0.97;73.41;99122.81;5016805;28;20057;-71
2022/11/04 02:04:26;;;;;;;16.42;7.57;;;;;;;-1.02;73.76;99127.69;5050900;28;20514;-72
2022/11/04 02:06:54;;;;;;;16.65;8.27;;;;;;;-0.86;73.71;99123.38;5033741;28;20069;-71
2022/11/04 02:09:21;;;;;;;18.05;7.88;;;;;;;-0.58;72.97;99115.94;5016826;28;20049;-71
2022/11/04 02:14:33;;;;;;;18.92;8.90;;;;;;;-0.52;72.40;99123.06;5018985;28;20499;-71
2022/11/04 02:17:11;;;;;;;21.65;8.70;;;;;;;-0.38;72.28;99130.13;4999849;28;20571;-70
2022/11/04 02:20:03;;;;;;;21.23;9.38;;;;;;;-0.26;71.41;99125.31;5033512;28;20052;-71
2022/11/04 02:22:58;;;;;;;17.55;7.88;;;;;;;-0.48;71.93;99125.13;5016402;28;20048;-71
2022/11/04 02:26:01;;;;;;;17.77;7.72;;;;;;;-0.64;72.21;99116.63;5051070;28;20040;-72
2022/11/04 02:28:45;;;;;;;18.80;7.70;;;;;;;-0.46;72.24;99114.56;5033064;28;20131;-71
2022/11/04 02:31:13;;;;;;;18.02;7.20;;;;;;;-0.36;71.52;99116.91;5033403;28;20049;-71
2022/11/04 02:34:05;;;;;;;18.05;7.15;;;;;;;-0.43;71.48;99113.41;5013171;28;20076;-71
2022/11/04 02:36:37;;;;;;;16.75;6.43;;;;;;;-0.33;71.46;99116.56;5015495;28;20429;-71
2022/11/04 02:39:09;;;;;;;14.48;5.95;;;;;;;-0.35;71.12;99108.94;5032909;28;20132;-71
2022/11/04 02:41:48;;;;;;;14.50;6.85;;;;;;;-0.34;70.09;99110.56;5036166;28;20104;-72
2022/11/04 02:44:20;;;;;;;15.15;7.05;;;;;;;-0.45;71.15;99118.75;5020247;28;20456;-72
2022/11/04 02:46:56;;;;;;;11.75;5.45;;;;;;;-0.54;71.07;99117.19;5053895;28;20044;-71
2022/11/04 02:49:37;;;;;;;14.73;6.45;;;;;;;-0.51;71.20;99115.06;5020538;28;20037;-71
2022/11/04 02:52:10;;;;;;;12.88;6.40;;;;;;;-0.52;71.90;99120.44;5019590;28;20051;-71
2022/11/04 02:54:49;;;;;;;14.05;5.45;;;;;;;-0.56;71.53;99113.94;5020077;28;20081;-70
2022/11/04 02:57:19;;;;;;;10.70;5.40;;;;;;;-0.61;71.94;99111.88;5035800;28;20052;-71
2022/11/04 03:00:06;;;;;;;12.30;5.55;;;;;;;-0.65;72.11;99110.56;5003379;28;20037;-71
2022/11/04 03:02:54;;;;;;;14.77;6.88;;;;;;;-0.58;72.50;99108.13;5036066;28;20382;-71
2022/11/04 03:05:25;;;;;;;15.60;6.13;;;;;;;-0.53;72.07;99111.84;5019733;28;20182;-72
2022/11/04 03:07:53;;;;;;;14.18;6.32;;;;;;;-0.28;72.27;99117.66;5019773;28;20520;-70
2022/11/04 03:10:24;;;;;;;15.45;6.60;;;;;;;-0.17;71.32;99107.84;5036261;28;20045;-72
2022/11/04 03:13:02;;;;;;;9.23;3.92;;;;;;;-0.31;69.90;99112.00;5035854;28;20048;-70
2022/11/04 03:15:30;;;;;;;11.75;4.53;;;;;;;-0.31;70.18;99110.19;5019372;28;20041;-71
2022/11/04 03:18:02;;;;;;;10.00;4.55;;;;;;;-0.31;70.20;99115.41;5035500;28;20037;-71
2022/11/04 03:20:30;;;;;;;10.85;4.82;;;;;;;-0.44;71.15;99114.34;5019439;28;20342;-71
2022/11/04 03:22:59;;;;;;;13.40;6.05;;;;;;;-0.33;72.05;99112.16;5053562;28;20045;-71
2022/11/04 03:25:27;;;;;;;12.52;5.10;;;;;;;-0.43;71.12;99116.81;5003174;28;20045;-70
2022/11/04 03:28:03;;;;;;;13.75;6.05;;;;;;;-0.45;72.13;99121.38;5035467;28;20047;-71
2022/11/04 03:30:42;;;;;;;8.93;4.97;;;;;;;-0.60;72.60;99113.47;5035609;28;20045;-71
2022/11/04 03:33:17;;;;;;;12.73;5.28;;;;;;;-0.46;72.26;99111.94;5018954;28;20044;-71
2022/11/04 03:35:43;;;;;;;11.10;4.95;;;;;;;-0.45;72.16;99116.16;5053765;28;20329;-71
2022/11/04 03:38:08;;;;;;;12.63;5.00;;;;;;;-0.38;72.65;99113.66;5053325;28;20041;-70
2022/11/04 03:40:34;;;;;;;11.88;4.57;;;;;;;-0.35;71.74;99108.94;5053450;28;20510;-71
2022/11/04 03:43:07;;;;;;;5.63;3.40;;;;;;;-0.43;70.98;99113.41;5052840;28;20417;-71
2022/11/04 03:45:34;;;;;;;6.57;3.58;;;;;;;-0.48;70.74;99114.72;5035152;28;20567;-71
2022/11/04 03:47:59;;;;;;;8.85;3.72;;;;;;;-0.45;70.72;99110.94;4986115;28;20098;-72
2022/11/04 03:50:25;;;;;;;8.90;4.40;;;;;;;-0.48;70.83;99106.91;5018668;28;20049;-70
2022/11/04 03:52:51;;;;;;;9.80;4.90;;;;;;;-0.51;70.85;99112.44;5052068;28;20052;-71
2022/11/04 03:55:17;;;;;;;9.43;4.50;;;;;;;-0.37;71.30;99113.50;5018146;28;20048;-71
2022/11/04 03:57:51;;;;;;;10.23;4.55;;;;;;;-0.37;72.20;99125.72;5022822;28;20048;-71
2022/11/04 04:00:21;;;;;;;7.95;4.20;;;;;;;-0.40;72.98;99118.25;5072894;28;20055;-72
2022/11/04 04:03:09;;;;;;;9.55;5.28;;;;;;;-0.46;73.16;99114.56;5054396;28;20090;-70
2022/11/04 04:05:50;;;;;;;15.57;5.78;;;;;;;-0.36;73.71;99111.72;5038613;28;20051;-71
2022/11/04 04:08:21;;;;;;;;;;;;;;;-0.30;72.44;99119.63;5038765;28;20040;-72
2022/11/04 04:10:59;;;;;;;13.65;5.22;;;;;;;-0.38;73.39;99113.66;5072645;28;19931;-70
2022/11/04 04:13:34;;;;;;;8.85;4.25;;;;;;;-0.20;72.40;99119.41;5038082;28;20044;-70
2022/11/04 04:16:20;;;;;;;7.15;3.00;;;;;;;-0.37;71.36;99126.53;5072647;28;20575;-72
2022/11/04 04:18:54;;;;;;;9.95;4.78;;;;;;;-0.45;72.42;99123.97;5037590;28;20135;-72
2022/11/04 04:21:22;;;;;;;8.52;4.15;;;;;;;-0.57;72.32;99128.75;5037942;28;20102;-67
2022/11/04 04:29:21;;;;;;;8.73;3.90;;;;;;;-0.55;72.54;99126.81;5072527;28;20040;-68
2022/11/04 04:31:51;;;;;;;6.63;3.30;;;;;;;-0.45;71.45;99129.19;5037711;28;20078;-67
2022/11/04 04:34:28;;;;;;;5.55;3.20;;;;;;;-0.48;71.38;99132.13;5037755;28;20469;-66
2022/11/04 04:37:06;;;;;;;8.07;3.70;;;;;;;-0.54;71.92;99125.81;5072225;28;20433;-67
2022/11/04 04:45:06;;;;;;;5.53;3.10;;;;;;;-0.80;70.68;99118.31;5023593;28;20049;-66
2022/11/04 04:47:39;;;;;;;6.85;3.38;;;;;;;-0.66;70.83;99129.00;5053909;28;20033;-70
2022/11/04 04:50:05;;;;;;;4.32;2.85;;;;;;;-0.64;70.91;99133.03;5037604;28;20051;-70
2022/11/04 04:52:33;;;;;;;9.05;3.20;;;;;;;-0.70;71.52;99131.94;5037276;28;20497;-71
2022/11/04 04:54:59;;;;;;;8.65;3.45;;;;;;;-0.66;71.32;99137.59;5037143;28;20049;-71
2022/11/04 04:57:25;;;;;;;6.18;3.00;;;;;;;-0.84;71.87;99135.25;5020224;28;20075;-71
2022/11/04 04:59:51;;;;;;;8.02;3.65;;;;;;;-0.93;72.62;99141.47;5053735;28;20049;-71
2022/11/04 05:02:16;;;;;;;6.72;3.63;;;;;;;-0.96;72.92;99141.81;5053488;28;20413;-71
2022/11/04 05:04:42;;;;;;;8.10;3.78;;;;;;;-0.83;72.32;99147.28;5053617;28;20048;-72
2022/11/04 05:07:08;;;;;;;8.43;3.67;;;;;;;-0.88;72.05;99125.34;5036877;28;20054;-71
2022/11/04 05:09:35;;;;;;;7.65;4.35;;;;;;;-0.67;71.98;99136.00;5053667;28;20040;-70
2022/11/04 05:12:00;;;;;;;8.65;3.97;;;;;;;-0.70;72.18;99142.34;5071735;28;20045;-70
2022/11/04 05:14:26;;;;;;;10.07;4.22;;;;;;;-0.67;71.65;99135.19;5030298;28;20497;-72
2022/11/04 05:16:52;;;;;;;8.80;4.18;;;;;;;-0.68;72.40;99142.16;5013738;28;20410;-72
2022/11/04 05:19:17;;;;;;;6.20;3.90;;;;;;;-0.57;72.08;99140.97;5060367;28;20533;-71
2022/11/04 05:21:43;;;;;;;7.65;3.85;;;;;;;-0.39;71.98;99146.72;5017172;28;20059;-72
2022/11/04 05:24:09;;;;;;;9.00;3.92;;;;;;;-0.29;71.88;99149.91;5013574;28;20045;-71
2022/11/04 05:26:35;;;;;;;10.73;5.03;;;;;;;-0.36;71.79;99143.75;4997394;28;20044;-71
2022/11/04 05:29:01;;;;;;;10.30;4.40;;;;;;;-0.31;71.86;99149.28;5028027;28;20037;-72
2022/11/04 05:31:27;;;;;;;10.98;4.65;;;;;;;-0.31;71.67;99145.88;5016893;28;20094;-71
2022/11/04 05:33:53;;;;;;;9.63;4.63;;;;;;;-0.31;71.42;99141.47;5033614;28;20041;-72
2022/11/04 05:36:18;;;;;;;10.32;4.57;;;;;;;-0.25;71.44;99150.38;5033392;28;20049;-71
2022/11/04 05:38:49;;;;;;;9.32;3.70;;;;;;;-0.19;70.89;99154.91;5016893;28;20067;-71
2022/11/04 05:41:24;;;;;;;7.55;3.92;;;;;;;-0.22;70.79;99151.84;5016722;28;20425;-71
2022/11/04 05:43:55;;;;;;;9.18;4.07;;;;;;;-0.29;70.48;99155.13;5033122;28;20497;-71
2022/11/04 05:46:21;;;;;;;;;;;;;;;-0.22;70.60;99157.03;5017195;28;20068;-72
2022/11/04 05:48:46;;;;;;;7.75;3.75;;;;;;;-0.15;70.57;99158.75;5051100;28;20027;-72
2022/11/04 05:51:13;;;;;;;8.32;4.32;;;;;;;-0.06;70.59;99149.09;5000472;28;20076;-72
2022/11/04 05:53:40;;;;;;;10.95;5.05;;;;;;;0.09;70.52;99154.34;5016511;28;20383;-71
2022/11/04 05:56:06;;;;;;;11.80;5.63;;;;;;;0.19;70.04;99162.75;5032202;28;20095;-71
2022/11/04 05:58:31;;;;;;;12.70;4.82;;;;;;;0.30;69.79;99166.75;5032790;28;20041;-72
2022/11/04 06:01:36;;;;;;;11.27;4.80;;;;;;;0.35;69.85;99167.81;5050772;28;20037;-71
2022/11/04 06:04:04;;;;;;;13.98;5.13;;;;;;;0.31;69.72;99163.16;4978579;28;20048;-72
2022/11/04 06:06:32;;;;;;;10.60;4.65;;;;;;;0.20;70.58;99159.94;5036502;28;20082;-70
2022/11/04 06:08:58;;;;;;;11.15;4.90;;;;;;;0.12;70.40;99169.63;5036426;28;20033;-71
2022/11/04 06:11:25;;;;;;;10.60;4.97;;;;;;;0.21;70.67;99164.19;5052871;28;20062;-72
2022/11/04 06:13:52;;;;;;;9.55;4.90;;;;;;;0.29;70.36;99159.91;5019822;28;20626;-72
2022/11/04 06:16:18;;;;;;;12.40;5.25;;;;;;;0.26;70.62;99173.28;5074377;28;20040;-71
2022/11/04 06:18:44;;;;;;;14.77;5.88;;;;;;;0.38;71.71;99175.31;5074436;28;20048;-71
2022/11/04 06:21:14;;;;;;;14.05;5.40;;;;;;;0.35;71.17;99164.41;5056814;28;20052;-72
2022/11/04 06:23:41;;;;;;;12.70;6.18;;;;;;;0.30;71.99;99167.56;5056560;28;20048;-71
2022/11/04 06:26:07;;;;;;;12.77;5.60;;;;;;;0.34;71.03;99165.41;5040410;28;20113;-72
2022/11/04 06:28:34;;;;;;;13.80;5.80;;;;;;;0.20;72.46;99164.38;5074676;28;20366;-73
2022/11/04 06:31:02;;;;;;;12.70;5.90;;;;;;;0.38;72.08;99179.69;5056349;28;20402;-71
2022/11/04 06:33:28;;;;;;;12.80;5.57;;;;;;;0.43;72.04;99174.75;5056555;28;20036;-71
2022/11/04 06:36:00;;;;;;;14.10;5.90;;;;;;;0.38;71.59;99179.69;5039957;28;20058;-70
2022/11/04 06:38:28;;;;;;;11.15;5.38;;;;;;;0.19;72.92;99174.00;5056621;28;20123;-71
2022/11/04 06:40:54;;;;;;;14.93;6.45;;;;;;;0.34;73.02;99170.59;5040012;28;20048;-72
2022/11/04 06:43:20;;;;;;;12.60;6.45;;;;;;;0.25;73.01;99182.91;5056392;28;20040;-72
2022/11/04 06:45:59;;;;;;;12.88;5.75;;;;;;;0.32;73.43;99183.00;5056572;28;20047;-72
2022/11/04 06:48:25;;;;;;;14.70;7.10;;;;;;;0.40;73.25;99182.94;5015075;28;20094;-73
2022/11/04 06:50:51;;;;;;;15.95;6.85;;;;;;;0.39;73.24;99182.13;5056144;28;20044;-72
2022/11/04 06:53:17;;;;;;;17.23;7.05;;;;;;;0.47;72.74;99193.47;5056205;28;20117;-71
2022/11/04 06:55:44;;;;;;;18.25;7.57;;;;;;;0.38;73.96;99190.97;5055997;28;20143;-72
2022/11/04 06:58:09;;;;;;;19.95;8.05;;;;;;;0.43;73.72;99190.41;5023003;28;20576;-71
2022/11/04 07:00:35;;;;;;;14.00;7.05;;;;;;;0.43;73.81;99190.41;5055802;28;20136;-71
2022/11/04 07:03:01;;;;;;;14.18;6.72;;;;;;;0.41;73.82;99184.56;5016021;28;20038;-71
2022/11/04 07:05:27;;;;;;;12.05;5.63;;;;;;;0.41;73.14;99193.22;4999913;28;20091;-72
2022/11/04 07:07:52;;;;;;;10.93;5.38;;;;;;;0.47;73.40;99191.66;5039077;28;20036;-72
2022/11/04 07:10:18;;;;;;;10.20;5.78;;;;;;;0.41;73.63;99208.03;5019727;28;20498;-71
2022/11/04 07:12:45;;;;;;;14.25;6.22;;;;;;;0.34;73.45;99205.31;5003656;28;20087;-73
2022/11/04 07:15:11;;;;;;;11.90;6.47;;;;;;;0.36;74.29;99198.13;5016090;28;20037;-73
2022/11/04 07:17:37;;;;;;;10.82;5.90;;;;;;;0.47;73.93;99203.91;5034552;28;20040;-71
2022/11/04 07:20:04;;;;;;;14.05;5.78;;;;;;;0.34;74.81;99201.91;5036351;28;20045;-72
2022/11/04 07:22:30;;;;;;;8.38;4.50;;;;;;;0.20;73.93;99204.28;5035491;28;20044;-70
2022/11/04 07:24:56;;;;;;;10.85;5.10;;;;;;;0.20;74.59;99203.47;5053224;28;20056;-78
2022/11/04 07:27:23;;;;;;;9.98;4.80;;;;;;;0.25;73.74;99201.16;5018950;28;20114;-76
2022/11/04 07:29:54;;;;;;;7.85;3.95;;;;;;;0.09;74.77;99191.69;5007000;28;20051;-81
2022/11/04 07:32:19;;;;;;;6.67;3.80;;;;;;;0.29;73.50;99199.81;5055660;28;20052;-72
2022/11/04 07:34:45;;;;;;;6.47;3.72;;;;;;;0.36;72.94;99200.75;5073328;28;20044;-71
2022/11/04 07:37:11;;;;;;;9.50;3.95;;;;;;;0.41;73.33;99197.59;5073535;28;20409;-73
2022/11/04 07:39:36;;;;;;;7.60;4.15;;;;;;;0.42;73.80;99194.00;5055257;28;20049;-66
2022/11/04 07:42:02;;;;;;;7.40;4.55;;;;;;;0.47;73.46;99196.06;5038566;28;20044;-69
2022/11/04 07:44:28;;;;;;;7.72;3.63;;;;;;;0.48;73.54;99198.53;5038681;28;20044;-70
2022/11/04 07:46:54;;;;;;;7.22;3.95;;;;;;;0.20;73.95;99149.53;5055363;28;20200;-71
2022/11/04 07:49:19;;;;;;;8.05;4.47;;;;;;;0.55;73.29;99203.84;5038501;28;20463;-71
2022/11/04 07:51:47;;;;;;;10.88;4.25;;;;;;;0.53;73.52;99190.97;5073019;28;20080;-69
2022/11/04 07:54:13;;;;;;;7.78;4.13;;;;;;;0.45;73.49;99198.88;5038467;28;20036;-74
2022/11/04 07:56:39;;;;;;;7.30;3.78;;;;;;;0.28;73.56;99192.97;4998844;28;20063;-70
2022/11/04 07:59:05;;;;;;;7.25;4.32;;;;;;;0.40;74.15;99196.78;5049262;28;20042;-71
2022/11/04 08:01:31;;;;;;;9.32;4.53;;;;;;;0.53;73.99;99201.41;5018527;28;20469;-70
2022/11/04 08:03:57;;;;;;;7.75;4.10;;;;;;;0.77;73.39;99199.56;5018332;28;20072;-71
2022/11/04 08:06:23;;;;;;;6.53;3.88;;;;;;;0.80;72.05;99188.78;5052709;28;20451;-72
2022/11/04 08:08:52;;;;;;;7.05;4.40;;;;;;;0.96;72.70;99193.00;5018234;28;20099;-70
2022/11/04 08:11:22;;;;;;;7.32;4.53;;;;;;;1.12;71.76;99185.00;5018780;28;20048;-72
2022/11/04 08:13:47;;;;;;;8.68;4.82;;;;;;;0.97;71.49;99190.22;5018262;28;20053;-71
2022/11/04 08:16:15;;;;;;;9.57;4.85;;;;;;;0.99;71.63;99190.03;5001823;28;20194;-70
2022/11/04 08:18:42;;;;;;;6.72;4.32;;;;;;;1.08;72.30;99188.94;5017859;28;20048;-71
2022/11/04 08:21:09;;;;;;;6.78;4.00;;;;;;;0.98;71.25;99189.22;5018098;28;20056;-68
2022/11/04 08:23:35;;;;;;;9.40;4.63;;;;;;;1.03;70.55;99189.50;5017915;28;20049;-72
2022/11/04 08:26:08;;;;;;;8.07;4.45;;;;;;;1.03;70.83;99192.09;5018279;28;20047;-71
2022/11/04 08:28:34;;;;;;;8.75;4.80;;;;;;;0.73;71.63;99193.88;5034909;28;20457;-70
2022/11/04 08:31:19;;;;;;;8.32;4.95;;;;;;;0.78;71.70;99198.56;5034441;28;20052;-71
2022/11/04 08:33:45;;;;;;;8.18;4.00;;;;;;;0.70;71.94;99204.66;5034470;28;20037;-71
2022/11/04 08:36:19;;;;;;;9.13;4.97;;;;;;;0.75;72.25;99202.34;5052343;28;20072;-69
2022/11/04 08:38:46;;;;;;;12.23;6.60;;;;;;;0.67;72.10;99199.81;5033925;28;20413;-75
2022/11/04 08:41:13;;;;;;;9.75;5.97;;;;;;;0.73;72.32;99193.88;5017810;28;20049;-76
2022/11/04 08:43:40;;;;;;;10.15;5.32;;;;;;;0.78;72.17;99190.75;5034393;28;20449;-76
2022/11/04 08:46:08;;;;;;;10.88;5.00;;;;;;;0.77;71.84;99186.53;5034383;28;20454;-76
2022/11/04 08:48:36;;;;;;;9.13;5.15;;;;;;;0.78;72.05;99190.75;5017868;28;20040;-76
2022/11/04 08:51:04;;;;;;;10.57;6.20;;;;;;;0.80;72.12;99196.59;5034278;28;20037;-72
2022/11/04 08:53:30;;;;;;;11.57;5.85;;;;;;;0.71;72.48;99188.03;5033937;28;20060;-70
2022/11/04 08:55:56;;;;;;;13.07;6.63;;;;;;;0.66;72.51;99190.38;5038999;28;20057;-71
2022/11/04 08:58:23;;;;;;;12.80;5.57;;;;;;;0.62;72.79;99192.53;5037288;28;20443;-71
2022/11/04 09:00:50;;;;;;;12.82;6.13;;;;;;;0.71;72.09;99188.03;5070987;28;20150;-68
2022/11/04 09:03:16;;;;;;;9.95;5.88;;;;;;;0.63;72.35;99196.75;5053521;28;20102;-71
2022/11/04 09:05:47;;;;;;;9.23;5.65;;;;;;;0.70;72.78;99188.19;5037645;28;20052;-73
2022/11/04 09:08:16;;;;;;;11.93;6.38;;;;;;;0.94;71.57;99203.59;5005125;28;20120;-75
2022/11/04 09:10:47;;;;;;;10.10;5.65;;;;;;;1.07;70.97;99198.56;5036974;28;20044;-72
2022/11/04 09:13:14;;;;;;;;;;;;;;;1.07;71.08;99208.22;5072146;28;20078;-68
2022/11/04 09:15:40;;;;;;;11.35;5.65;;;;;;;1.02;70.81;99195.69;5053604;28;19986;-75
2022/11/04 09:18:07;;;;;;;10.32;5.78;;;;;;;1.02;71.58;99195.69;5020707;28;20123;-76
2022/11/04 09:20:37;;;;;;;13.13;6.38;;;;;;;1.06;71.69;99190.91;5053388;28;20459;-73
2022/11/04 09:23:03;;;;;;;11.45;7.55;;;;;;;0.97;71.15;99197.22;5036538;28;20036;-74
2022/11/04 09:25:29;;;;;;;11.02;6.43;;;;;;;0.88;72.09;99199.09;5071352;28;20092;-73
2022/11/04 09:27:55;;;;;;;13.00;7.78;;;;;;;1.03;71.49;99194.72;5053298;28;20075;-70
2022/11/04 09:30:20;;;;;;;13.57;6.60;;;;;;;1.00;71.47;99191.63;5045064;28;20419;-74
2022/11/04 09:32:49;;;;;;;12.15;6.82;;;;;;;1.01;71.76;99188.84;5017003;28;20047;-73
2022/11/04 09:35:16;;;;;;;14.75;6.97;;;;;;;1.04;71.69;99187.69;5033554;28;20458;-74
2022/11/04 09:37:42;;;;;;;13.30;6.68;;;;;;;1.24;70.92;99182.72;5051144;28;20037;-67
2022/11/04 09:40:19;;;;;;;16.63;9.15;;;;;;;1.09;70.67;99191.38;5051103;28;20041;-69
2022/11/04 09:43:03;;;;;;;12.73;6.65;;;;;;;1.20;70.50;99187.47;5032852;28;20137;-69
2022/11/04 09:45:32;;;;;;;12.00;7.25;;;;;;;1.16;71.33;99182.81;5051151;28;20051;-72
2022/11/04 09:48:03;;;;;;;13.80;6.93;;;;;;;1.22;70.86;99185.50;5032796;28;20032;-71
2022/11/04 09:50:35;;;;;;;13.27;7.45;;;;;;;1.22;70.74;99189.94;5016223;28;20045;-69
2022/11/04 09:53:04;;;;;;;15.73;7.82;;;;;;;1.25;70.81;99192.19;5033226;28;20044;-70
2022/11/04 09:55:38;;;;;;;13.05;6.97;;;;;;;1.22;71.26;99193.34;5050855;28;20045;-71
2022/11/04 09:58:04;;;;;;;12.30;7.43;;;;;;;1.24;71.60;99196.59;5016758;28;20039;-70
2022/11/04 10:00:31;;;;;;;12.40;7.38;;;;;;;1.25;70.93;99200.81;5051162;28;20045;-68
2022/11/04 10:03:18;;;;;;;13.43;7.97;;;;;;;1.17;71.64;99195.69;5032737;28;20099;-70
2022/11/04 10:06:17;;;;;;;15.90;8.35;;;;;;;1.02;71.59;99200.09;5033213;28;20052;-70
2022/11/04 10:09:16;;;;;;;13.93;8.00;;;;;;;0.92;72.13;99200.38;5032717;28;20051;-71
2022/11/04 10:11:44;;;;;;;11.90;6.75;;;;;;;0.90;72.48;99192.72;5030920;28;20162;-70
2022/11/04 10:14:34;;;;;;;12.90;6.93;;;;;;;0.92;72.16;99202.19;5066532;28;20086;-69
2022/11/04 10:17:36;;;;;;;14.38;6.53;;;;;;;0.82;72.64;99192.00;5070736;28;20135;-65
2022/11/04 10:20:24;;;;;;;11.73;7.20;;;;;;;0.79;73.21;99197.56;5052880;28;20071;-65
2022/11/04 10:22:55;;;;;;;14.18;7.32;;;;;;;0.76;72.96;99195.31;5070314;28;20051;-66
2022/11/04 10:25:22;;;;;;;16.10;7.55;;;;;;;0.74;73.71;99192.09;5070619;28;20139;-63
2022/11/04 10:27:49;;;;;;;11.93;6.80;;;;;;;0.87;72.94;99193.06;5035963;28;20047;-63
2022/11/04 10:30:18;;;;;;;13.85;6.85;;;;;;;0.95;72.51;99197.41;5036300;28;20409;-63
2022/11/04 10:33:09;;;;;;;10.82;6.53;;;;;;;1.00;72.33;99189.84;5052712;28;20519;-61
2022/11/04 10:35:44;;;;;;;14.43;7.43;;;;;;;1.04;72.35;99187.69;5070674;28;20452;-64
2022/11/04 10:38:20;;;;;;;15.52;7.88;;;;;;;1.24;72.19;99188.75;5051603;28;20036;-62
2022/11/04 10:40:48;;;;;;;13.88;7.30;;;;;;;1.23;71.85;99188.94;5035860;28;20072;-62
2022/11/04 10:43:17;;;;;;;10.32;6.18;;;;;;;1.30;71.30;99188.03;5069064;28;20490;-63
2022/11/04 10:46:03;;;;;;;14.20;7.38;;;;;;;1.52;70.78;99185.47;5052653;28;20049;-62
2022/11/04 10:48:34;;;;;;;11.68;7.15;;;;;;;1.57;70.28;99189.16;5052513;28;20098;-63
2022/11/04 10:51:00;;;;;;;11.65;6.97;;;;;;;1.53;70.51;99189.69;5036090;28;20041;-63
2022/11/04 10:53:27;;;;;;;15.15;7.18;;;;;;;1.62;69.80;99198.22;5070542;28;20596;-63
2022/11/04 10:55:56;;;;;;;11.55;6.95;;;;;;;1.53;70.15;99194.91;5052471;28;20143;-64
2022/11/04 10:58:35;;;;;;;13.65;7.32;;;;;;;1.55;70.05;99193.72;5070707;28;20032;-63
2022/11/04 11:01:31;;;;;;;13.80;7.15;;;;;;;1.36;70.69;99197.75;5024454;28;20534;-61
2022/11/04 11:03:58;;;;;;;11.25;7.03;;;;;;;1.25;71.04;99200.00;5035887;28;20036;-65
2022/11/04 11:06:32;;;;;;;16.55;7.53;;;;;;;1.30;70.94;99197.66;5019654;28;20049;-66
2022/11/04 11:09:39;;;;;;;14.10;7.97;;;;;;;1.31;70.92;99202.69;5035786;28;20449;-71
2022/11/04 11:12:19;;;;;;;15.77;7.38;;;;;;;1.33;70.92;99200.72;5004188;28;20049;-69
2022/11/04 11:14:46;;;;;;;14.77;8.23;;;;;;;1.36;70.65;99200.34;5003043;28;20049;-69
2022/11/04 11:17:45;;;;;;;13.15;7.13;;;;;;;1.48;70.83;99208.53;5019097;28;20040;-70
2022/11/04 11:20:20;;;;;;;14.68;7.07;;;;;;;1.45;70.50;99201.06;5024375;28;20055;-69
2022/11/04 11:22:48;;;;;;;13.15;7.78;;;;;;;1.41;70.57;99209.44;5035270;28;20045;-69
2022/11/04 11:25:27;;;;;;;14.27;7.45;;;;;;;1.42;70.79;99214.50;5034411;28;20044;-68
2022/11/04 11:28:02;;;;;;;13.70;7.97;;;;;;;1.38;71.32;99204.56;5055957;28;20052;-70
2022/11/04 11:30:31;;;;;;;13.30;7.95;;;;;;;1.32;71.40;99211.34;5038701;28;20122;-69
2022/11/04 11:33:17;;;;;;;13.73;7.65;;;;;;;1.21;71.71;99211.81;5038880;28;20485;-68
2022/11/04 11:36:14;;;;;;;13.95;7.75;;;;;;;1.25;71.57;99213.88;5038575;28;20051;-69
2022/11/04 11:39:05;;;;;;;14.50;7.18;;;;;;;0.98;72.62;99217.13;5050659;28;20056;-69
2022/11/04 11:41:34;;;;;;;11.18;6.38;;;;;;;1.11;72.03;99206.84;5038847;28;20040;-68
2022/11/04 11:44:03;;;;;;;12.55;7.47;;;;;;;1.16;72.13;99224.59;5035064;28;20053;-69
2022/11/04 11:46:31;;;;;;;12.82;7.30;;;;;;;0.97;72.72;99218.94;5055159;28;20048;-69
2022/11/04 11:49:00;;;;;;;13.48;7.45;;;;;;;0.97;72.78;99215.47;5038571;28;20033;-69
2022/11/04 11:51:37;;;;;;;18.50;8.57;;;;;;;0.98;73.12;99225.75;5021531;28;20417;-68
2022/11/04 11:54:07;;;;;;;13.88;8.13;;;;;;;0.95;73.45;99220.91;5073168;28;20082;-68
2022/11/04 11:56:42;;;;;;;14.60;7.85;;;;;;;0.82;73.56;99226.72;5072628;28;20056;-68
2022/11/04 11:59:41;;;;;;;15.15;8.45;;;;;;;0.83;73.93;99227.56;5038143;28;20051;-68
2022/11/04 12:02:16;;;;;;;15.32;8.02;;;;;;;0.83;73.40;99222.34;5037753;28;20143;-68
2022/11/04 12:04:42;;;;;;;15.88;8.07;;;;;;;0.85;74.00;99230.78;5054121;28;20040;-68
2022/11/04 12:07:07;;;;;;;12.60;7.07;;;;;;;0.85;73.86;99225.56;5054464;28;20037;-69
2022/11/04 12:09:44;;;;;;;14.95;8.00;;;;;;;0.95;73.81;99220.91;5054579;28;20063;-68
2022/11/04 12:12:25;;;;;;;14.25;7.88;;;;;;;0.94;73.42;99224.47;5054085;28;20052;-69
2022/11/04 12:15:05;;;;;;;15.52;7.90;;;;;;;0.89;73.33;99229.44;5037910;28;20044;-69
2022/11/04 12:18:01;;;;;;;17.58;7.78;;;;;;;0.95;73.35;99225.31;5054741;28;20076;-69
2022/11/04 12:21:02;;;;;;;13.55;6.90;;;;;;;0.96;73.76;99230.34;5036531;28;20055;-69